createdAt,value
2023-03-27T00:02:08.844Z,69.89
2023-03-27T00:04:35.773Z,70.07
2023-03-27T00:07:03.993Z,70.18
2023-03-27T00:09:32.518Z,70.59
2023-03-27T00:12:01.110Z,71.18
2023-03-27T00:14:27.979Z,71.44
2023-03-27T00:16:54.879Z,71.44
2023-03-27T00:19:21.982Z,70.17
2023-03-27T00:21:48.948Z,71.43
2023-03-27T00:24:16.136Z,71.47
2023-03-27T00:26:43.516Z,70.96
2023-03-27T00:29:10.739Z,70.24
2023-03-27T00:31:37.567Z,70.82
2023-03-27T00:34:04.340Z,70.88
2023-03-27T00:36:31.644Z,70.90
2023-03-27T00:38:58.476Z,71.00
2023-03-27T00:41:26.181Z,71.02
2023-03-27T00:43:54.299Z,71.16
2023-03-27T00:46:44.891Z,71.66
2023-03-27T00:49:14.269Z,72.45
2023-03-27T00:51:43.476Z,71.77
2023-03-27T00:54:12.812Z,71.40
2023-03-27T00:56:39.711Z,70.85
2023-03-27T00:59:12.689Z,70.80
2023-03-27T01:01:40.518Z,70.11
2023-03-27T01:04:09.214Z,70.65
2023-03-27T01:06:38.778Z,71.22
2023-03-27T01:09:05.652Z,71.54
2023-03-27T01:11:35.345Z,72.33
2023-03-27T01:14:20.854Z,72.16
2023-03-27T01:17:32.673Z,71.87
2023-03-27T01:20:10.141Z,72.53
2023-03-27T01:22:52.787Z,71.96
2023-03-27T01:25:28.504Z,71.89
2023-03-27T01:28:08.662Z,73.16
2023-03-27T01:30:53.166Z,73.10
2023-03-27T01:33:50.878Z,73.03
2023-03-27T01:36:52.506Z,73.47
2023-03-27T01:39:42.133Z,74.36
2023-03-27T01:42:38.745Z,75.38
2023-03-27T01:45:31.203Z,75.52
2023-03-27T01:48:11.288Z,75.65
2023-03-27T01:50:44.756Z,76.14
2023-03-27T01:53:29.237Z,76.01
2023-03-27T01:56:05.993Z,76.60
2023-03-27T01:58:47.037Z,76.89
2023-03-27T02:01:23.678Z,76.54
2023-03-27T02:03:54.452Z,77.49
2023-03-27T02:06:28.579Z,76.95
2023-03-27T02:09:18.016Z,77.64
2023-03-27T02:11:49.931Z,76.71
2023-03-27T02:14:23.507Z,77.05
2023-03-27T02:16:56.995Z,76.64
2023-03-27T02:19:34.056Z,76.88
2023-03-27T02:22:01.341Z,76.17
2023-03-27T02:24:28.120Z,76.21
2023-03-27T02:27:04.318Z,76.72
2023-03-27T02:29:50.251Z,76.22
2023-03-27T02:32:51.300Z,77.30
2023-03-27T02:35:17.978Z,76.76
2023-03-27T02:37:53.456Z,75.79
2023-03-27T02:40:29.330Z,76.66
2023-03-27T02:43:07.340Z,75.60
2023-03-27T02:45:46.351Z,75.79
2023-03-27T02:48:23.618Z,75.91
2023-03-27T02:51:03.202Z,75.90
2023-03-27T02:53:35.527Z,76.35
2023-03-27T02:56:04.544Z,75.90
2023-03-27T02:58:53.596Z,76.35
2023-03-27T03:01:22.504Z,74.88
2023-03-27T03:04:17.564Z,74.47
2023-03-27T03:06:44.899Z,75.13
2023-03-27T03:09:15.090Z,75.41
2023-03-27T03:11:53.406Z,75.02
2023-03-27T03:14:25.012Z,74.48
2023-03-27T03:16:51.929Z,74.88
2023-03-27T03:19:18.694Z,75.05
2023-03-27T03:21:49.838Z,75.13
2023-03-27T03:24:17.800Z,75.80
2023-03-27T03:26:45.352Z,75.73
2023-03-27T03:29:13.033Z,76.23
2023-03-27T03:31:45.729Z,75.85
2023-03-27T03:34:18.708Z,76.45
2023-03-27T03:36:50.161Z,76.76
2023-03-27T03:39:17.696Z,76.04
2023-03-27T03:41:44.512Z,75.62
2023-03-27T03:44:11.284Z,74.65
2023-03-27T03:46:38.229Z,75.31
2023-03-27T03:49:05.180Z,74.57
2023-03-27T03:51:33.418Z,73.78
2023-03-27T03:54:01.529Z,73.89
2023-03-27T03:56:30.684Z,73.67
2023-03-27T03:58:57.779Z,73.61
2023-03-27T04:01:26.316Z,73.80
2023-03-27T04:03:53.241Z,74.18
2023-03-27T04:06:26.964Z,74.41
2023-03-27T04:08:53.826Z,74.17
2023-03-27T04:11:20.943Z,74.30
2023-03-27T04:13:47.754Z,74.69
2023-03-27T04:16:15.757Z,74.32
2023-03-27T04:18:42.861Z,74.46
2023-03-27T04:21:16.617Z,74.09
2023-03-27T04:23:45.185Z,74.83
2023-03-27T04:26:12.676Z,74.37
2023-03-27T04:28:40.076Z,74.90
2023-03-27T04:31:08.132Z,75.52
2023-03-27T04:33:39.586Z,76.33
2023-03-27T04:36:08.503Z,76.18
2023-03-27T04:38:37.244Z,75.69
2023-03-27T04:41:04.872Z,76.73
2023-03-27T04:43:31.870Z,76.76
2023-03-27T04:45:58.637Z,76.93
2023-03-27T04:48:26.936Z,77.60
2023-03-27T04:50:53.694Z,77.08
2023-03-27T04:53:20.692Z,76.76
2023-03-27T04:55:51.377Z,76.83
2023-03-27T04:58:18.890Z,76.39
2023-03-27T05:00:50.557Z,77.23
2023-03-27T05:03:20.626Z,77.75
2023-03-27T05:05:49.759Z,77.50
2023-03-27T05:08:17.259Z,77.35
2023-03-27T05:10:45.339Z,77.58
2023-03-27T05:13:12.506Z,77.12
2023-03-27T05:15:39.433Z,77.67
2023-03-27T05:18:07.643Z,77.61
2023-03-27T05:20:35.405Z,76.86
2023-03-27T05:23:02.714Z,77.53
2023-03-27T05:25:33.258Z,76.52
2023-03-27T05:28:01.029Z,76.29
2023-03-27T05:30:28.633Z,74.97
2023-03-27T05:32:59.548Z,75.16
2023-03-27T05:35:28.786Z,75.56
2023-03-27T05:37:56.433Z,76.42
2023-03-27T05:40:25.848Z,75.59
2023-03-27T05:42:54.054Z,75.05
2023-03-27T05:45:21.528Z,75.19
2023-03-27T05:47:49.641Z,74.87
2023-03-27T05:50:18.165Z,74.36
2023-03-27T05:52:45.532Z,74.14
2023-03-27T05:55:14.120Z,74.45
2023-03-27T05:57:42.234Z,74.39
2023-03-27T06:00:12.209Z,74.03
2023-03-27T06:02:39.588Z,75.05
2023-03-27T06:05:13.516Z,74.78
2023-03-27T06:07:43.028Z,74.65
2023-03-27T06:10:13.620Z,75.49
2023-03-27T06:12:42.001Z,74.44
2023-03-27T06:15:10.220Z,74.80
2023-03-27T06:17:40.083Z,76.17
2023-03-27T06:20:12.939Z,76.31
2023-03-27T06:22:44.186Z,76.78
2023-03-27T06:25:11.112Z,76.40
2023-03-27T06:27:38.136Z,75.68
2023-03-27T06:30:06.146Z,77.30
2023-03-27T06:32:33.006Z,76.97
2023-03-27T06:34:59.831Z,77.31
2023-03-27T06:37:26.555Z,74.72
2023-03-27T06:39:55.015Z,73.46
2023-03-27T06:42:23.982Z,71.53
2023-03-27T06:44:50.790Z,70.33
2023-03-27T06:47:17.691Z,69.47
2023-03-27T06:49:47.909Z,67.55
2023-03-27T06:52:18.122Z,68.15
2023-03-27T06:54:44.911Z,67.26
2023-03-27T06:57:12.591Z,67.42
2023-03-27T06:59:39.224Z,65.28
2023-03-27T07:02:06.449Z,63.93
2023-03-27T07:04:33.623Z,63.56
2023-03-27T07:07:00.430Z,64.14
2023-03-27T07:09:27.197Z,63.67
2023-03-27T07:11:54.513Z,65.66
2023-03-27T07:14:21.348Z,64.65
2023-03-27T07:16:48.223Z,65.31
2023-03-27T07:19:15.029Z,64.75
2023-03-27T07:21:41.748Z,64.28
2023-03-27T07:24:08.815Z,64.40
2023-03-27T07:26:35.562Z,64.27
2023-03-27T07:29:03.279Z,64.13
2023-03-27T07:31:49.126Z,62.94
2023-03-27T07:34:17.548Z,62.28
2023-03-27T07:36:44.920Z,60.29
2023-03-27T07:39:14.389Z,61.23
2023-03-27T07:41:41.209Z,61.04
2023-03-27T07:44:08.353Z,62.15
2023-03-27T07:46:35.080Z,61.52
2023-03-27T07:49:01.828Z,60.85
2023-03-27T07:51:28.602Z,60.63
2023-03-27T07:54:01.274Z,58.48
2023-03-27T07:56:28.276Z,60.91
2023-03-27T07:58:55.427Z,57.91
2023-03-27T08:01:22.218Z,58.03
2023-03-27T08:03:49.559Z,60.68
2023-03-27T08:06:19.039Z,63.30
2023-03-27T08:08:45.861Z,63.28
2023-03-27T08:11:19.764Z,60.76
2023-03-27T08:13:54.555Z,61.65
2023-03-27T08:16:21.833Z,61.56
2023-03-27T08:18:49.899Z,62.21
2023-03-27T08:21:16.976Z,61.68
2023-03-27T08:23:43.687Z,61.92
2023-03-27T08:26:10.578Z,63.40
2023-03-27T08:28:37.893Z,62.50
2023-03-27T08:31:11.578Z,63.16
2023-03-27T08:33:39.407Z,61.09
2023-03-27T08:36:07.581Z,58.99
2023-03-27T08:38:39.601Z,58.23
2023-03-27T08:41:07.176Z,57.97
2023-03-27T08:43:41.752Z,58.75
2023-03-27T08:46:25.970Z,56.18
2023-03-27T08:49:07.028Z,55.55
2023-03-27T08:51:52.720Z,54.73
2023-03-27T08:54:30.322Z,55.65
2023-03-27T08:56:58.112Z,56.05
2023-03-27T08:59:28.194Z,55.60
2023-03-27T09:01:54.873Z,55.07
2023-03-27T09:04:48.757Z,54.07
2023-03-27T09:07:54.147Z,53.59
2023-03-27T09:10:47.153Z,54.41
2023-03-27T09:13:18.915Z,53.99
2023-03-27T09:15:58.791Z,53.67
2023-03-27T09:18:39.226Z,49.56
2023-03-27T09:21:14.702Z,47.90
2023-03-27T09:23:46.638Z,47.93
2023-03-27T09:26:19.070Z,47.88
2023-03-27T09:29:10.623Z,47.94
2023-03-27T09:31:47.714Z,48.93
2023-03-27T09:34:19.776Z,45.07
2023-03-27T09:36:46.842Z,45.65
2023-03-27T09:39:17.756Z,45.11
2023-03-27T09:41:52.959Z,44.63
2023-03-27T09:44:33.562Z,44.76
2023-03-27T09:47:05.464Z,46.03
2023-03-27T09:49:34.349Z,46.31
2023-03-27T09:52:02.721Z,48.39
2023-03-27T09:54:29.450Z,46.69
2023-03-27T09:57:05.501Z,49.66
2023-03-27T09:59:55.059Z,49.33
2023-03-27T10:02:26.254Z,49.20
2023-03-27T10:05:12.266Z,49.03
2023-03-27T10:07:40.967Z,48.76
2023-03-27T10:10:20.254Z,49.17
2023-03-27T10:12:57.326Z,50.09
2023-03-27T10:15:39.043Z,49.16
2023-03-27T10:18:22.358Z,47.14
2023-03-27T10:20:58.767Z,45.03
2023-03-27T10:23:28.503Z,47.12
2023-03-27T10:26:01.800Z,43.75
2023-03-27T10:28:34.613Z,41.19
2023-03-27T10:31:04.649Z,41.46
2023-03-27T10:33:36.844Z,45.96
2023-03-27T10:36:07.289Z,48.64
2023-03-27T10:38:37.989Z,50.51
2023-03-27T10:41:15.161Z,50.34
2023-03-27T10:43:44.486Z,45.76
2023-03-27T10:46:17.039Z,40.51
2023-03-27T10:49:02.324Z,41.34
2023-03-27T10:51:45.563Z,42.17
2023-03-27T10:54:22.097Z,43.58
2023-03-27T10:57:12.720Z,43.31
2023-03-27T11:00:18.748Z,45.11
2023-03-27T11:03:25.802Z,44.82
2023-03-27T11:05:54.502Z,45.28
2023-03-27T11:08:34.218Z,43.12
2023-03-27T11:11:13.117Z,41.63
2023-03-27T11:13:47.620Z,44.28
2023-03-27T11:16:39.962Z,44.34
2023-03-27T11:19:09.731Z,43.79
2023-03-27T11:22:04.963Z,43.96
2023-03-27T11:25:06.070Z,44.99
2023-03-27T11:27:43.272Z,44.43
2023-03-27T11:30:14.771Z,44.80
2023-03-27T11:32:53.064Z,43.07
2023-03-27T11:35:27.978Z,44.09
2023-03-27T11:38:31.617Z,44.08
2023-03-27T11:40:59.314Z,42.73
2023-03-27T11:43:26.388Z,42.06
2023-03-27T11:46:16.220Z,42.46
2023-03-27T11:49:20.533Z,40.87
2023-03-27T11:51:59.143Z,42.07
2023-03-27T11:54:43.745Z,39.02
2023-03-27T11:57:23.245Z,41.38
2023-03-27T12:00:06.285Z,40.62
2023-03-27T12:03:07.053Z,40.20
2023-03-27T12:06:17.995Z,41.48
2023-03-27T12:09:27.384Z,40.92
2023-03-27T12:12:14.956Z,40.95
2023-03-27T12:15:02.650Z,41.40
2023-03-27T12:17:50.456Z,41.22
2023-03-27T12:20:20.383Z,42.12
2023-03-27T12:23:05.396Z,41.99
2023-03-27T12:25:38.694Z,41.09
2023-03-27T12:28:22.516Z,40.32
2023-03-27T12:31:05.780Z,41.35
2023-03-27T12:33:59.693Z,43.13
2023-03-27T12:36:28.128Z,45.04
2023-03-27T12:38:55.994Z,45.18
2023-03-27T12:41:30.069Z,48.35
2023-03-27T12:44:01.046Z,50.22
2023-03-27T12:46:28.601Z,51.57
2023-03-27T12:48:55.364Z,53.66
2023-03-27T12:51:47.672Z,49.57
2023-03-27T12:54:14.341Z,46.80
2023-03-27T12:56:41.456Z,40.42
2023-03-27T12:59:49.938Z,41.08
2023-03-27T13:02:39.037Z,40.10
2023-03-27T13:05:27.360Z,42.56
2023-03-27T13:08:12.766Z,41.68
2023-03-27T13:10:58.109Z,43.58
2023-03-27T13:13:43.219Z,42.01
2023-03-27T13:16:34.976Z,41.41
2023-03-27T13:19:10.679Z,40.76
2023-03-27T13:22:08.395Z,40.67
2023-03-27T13:25:08.046Z,42.54
2023-03-27T13:27:51.763Z,47.16
2023-03-27T13:30:45.673Z,53.62
2023-03-27T13:33:24.494Z,59.94
2023-03-27T13:35:57.545Z,69.17
2023-03-27T13:38:43.506Z,71.79
2023-03-27T13:41:37.999Z,67.87
2023-03-27T13:44:11.078Z,67.94
2023-03-27T13:46:40.177Z,65.83
2023-03-27T13:49:17.237Z,59.99
2023-03-27T13:52:02.603Z,56.73
2023-03-27T13:55:00.592Z,57.13
2023-03-27T13:57:27.242Z,58.06
2023-03-27T14:00:18.633Z,59.63
2023-03-27T14:03:14.924Z,58.26
2023-03-27T14:06:00.778Z,62.19
2023-03-27T14:08:46.490Z,58.06
2023-03-27T14:11:47.347Z,61.86
2023-03-27T14:14:16.800Z,61.52
2023-03-27T14:16:50.797Z,59.42
2023-03-27T14:19:31.039Z,60.74
2023-03-27T14:22:05.497Z,58.73
2023-03-27T14:24:38.510Z,59.86
2023-03-27T14:27:11.020Z,60.12
2023-03-27T14:29:38.279Z,58.30
2023-03-27T14:32:07.359Z,57.77
2023-03-27T14:34:43.465Z,55.55
2023-03-27T14:37:30.933Z,57.18
2023-03-27T14:39:59.803Z,56.62
2023-03-27T14:42:33.189Z,56.93
2023-03-27T14:45:23.191Z,57.31
2023-03-27T14:47:54.297Z,55.23
2023-03-27T14:50:21.510Z,55.49
2023-03-27T14:52:53.456Z,56.06
2023-03-27T14:55:22.758Z,57.12
2023-03-27T14:57:51.508Z,57.05
2023-03-27T15:00:21.592Z,57.84
2023-03-27T15:02:50.039Z,59.10
2023-03-27T15:05:18.322Z,56.40
2023-03-27T15:07:49.112Z,57.61
2023-03-27T15:10:24.451Z,58.44
2023-03-27T15:12:51.669Z,57.47
2023-03-27T15:15:40.097Z,57.64
2023-03-27T15:18:16.794Z,57.12
2023-03-27T15:20:44.298Z,56.24
2023-03-27T15:23:38.788Z,59.23
2023-03-27T15:26:14.006Z,56.90
2023-03-27T15:28:50.113Z,57.83
2023-03-27T15:31:17.879Z,58.78
2023-03-27T15:34:02.478Z,58.07
2023-03-27T15:36:34.449Z,57.04
2023-03-27T15:39:04.249Z,56.88
2023-03-27T15:41:33.720Z,57.20
2023-03-27T15:44:08.385Z,58.21
2023-03-27T15:47:03.741Z,55.71
2023-03-27T15:49:38.953Z,54.69
2023-03-27T15:52:30.361Z,53.54
2023-03-27T15:54:59.773Z,52.97
2023-03-27T15:57:31.589Z,54.05
2023-03-27T16:00:14.876Z,55.09
2023-03-27T16:02:41.929Z,53.36
2023-03-27T16:05:08.956Z,54.54
2023-03-27T16:07:45.261Z,55.39
2023-03-27T16:10:12.608Z,57.22
2023-03-27T16:12:47.964Z,60.81
2023-03-27T16:15:38.211Z,59.07
2023-03-27T16:18:19.070Z,60.38
2023-03-27T16:20:45.956Z,62.02
2023-03-27T16:23:12.730Z,63.61
2023-03-27T16:25:41.428Z,65.25
2023-03-27T16:28:10.101Z,68.12
2023-03-27T16:30:41.197Z,69.71
2023-03-27T16:33:19.334Z,71.14
2023-03-27T16:35:46.279Z,71.22
2023-03-27T16:38:14.124Z,72.15
2023-03-27T16:40:40.990Z,72.33
2023-03-27T16:43:07.815Z,72.26
2023-03-27T16:45:34.942Z,72.78
2023-03-27T16:48:01.880Z,78.25
2023-03-27T16:50:30.858Z,80.48
2023-03-27T16:52:58.074Z,81.61
2023-03-27T16:55:25.276Z,82.28
2023-03-27T16:57:54.231Z,83.38
2023-03-27T17:00:21.428Z,83.72
2023-03-27T17:02:48.372Z,84.46
2023-03-27T17:05:15.891Z,85.25
2023-03-27T17:07:44.127Z,85.09
2023-03-27T17:10:11.105Z,84.85
2023-03-27T17:12:38.178Z,85.51
2023-03-27T17:15:05.995Z,85.53
2023-03-27T17:17:32.828Z,85.66
2023-03-27T17:19:59.844Z,86.13
2023-03-27T17:22:29.941Z,86.06
2023-03-27T17:24:58.036Z,86.85
2023-03-27T17:27:26.799Z,87.11
2023-03-27T17:29:55.765Z,86.82
2023-03-27T17:32:23.077Z,86.47
2023-03-27T17:34:51.933Z,86.58
2023-03-27T17:37:19.613Z,87.06
2023-03-27T17:39:46.625Z,87.18
2023-03-27T17:42:13.379Z,86.45
2023-03-27T17:44:41.604Z,86.67
2023-03-27T17:47:08.684Z,88.20
2023-03-27T17:49:35.506Z,88.35
2023-03-27T17:52:07.879Z,88.30
2023-03-27T17:54:35.054Z,87.82
2023-03-27T17:57:02.339Z,87.05
2023-03-27T17:59:31.263Z,87.00
2023-03-27T18:01:59.086Z,87.64
2023-03-27T18:04:26.004Z,88.27
2023-03-27T18:06:53.274Z,88.79
2023-03-27T18:09:20.336Z,88.26
2023-03-27T18:11:47.478Z,88.57
2023-03-27T18:14:14.375Z,88.46
2023-03-27T18:16:41.267Z,87.91
2023-03-27T18:19:09.111Z,88.53
2023-03-27T18:21:36.299Z,88.91
2023-03-27T18:24:03.637Z,88.92
2023-03-27T18:26:30.412Z,88.98
2023-03-27T18:28:57.923Z,89.44
2023-03-27T18:31:25.656Z,89.61
2023-03-27T18:33:52.823Z,89.31
2023-03-27T18:36:19.643Z,89.26
2023-03-27T18:38:48.478Z,88.63
2023-03-27T18:41:16.696Z,88.36
2023-03-27T18:43:43.530Z,89.35
2023-03-27T18:46:16.818Z,87.80
2023-03-27T18:48:44.959Z,86.68
2023-03-27T18:51:11.636Z,85.37
2023-03-27T18:53:38.419Z,85.27
2023-03-27T18:56:05.456Z,85.09
2023-03-27T18:58:33.435Z,83.87
2023-03-27T19:01:01.070Z,84.35
2023-03-27T19:03:35.191Z,85.29
2023-03-27T19:06:04.490Z,86.21
2023-03-27T19:08:33.140Z,86.19
2023-03-27T19:11:00.076Z,85.90
2023-03-27T19:13:26.998Z,85.24
2023-03-27T19:15:53.851Z,85.64
2023-03-27T19:18:21.255Z,84.77
2023-03-27T19:20:47.977Z,85.49
2023-03-27T19:23:14.753Z,85.36
2023-03-27T19:25:45.750Z,83.02
2023-03-27T19:28:12.554Z,83.93
2023-03-27T19:30:39.367Z,83.92
2023-03-27T19:33:06.757Z,83.41
2023-03-27T19:35:33.652Z,83.17
2023-03-27T19:38:00.769Z,82.16
2023-03-27T19:40:27.530Z,81.54
2023-03-27T19:42:54.468Z,80.81
2023-03-27T19:45:21.397Z,81.01
2023-03-27T19:47:48.167Z,81.41
2023-03-27T19:50:15.148Z,81.19
2023-03-27T19:52:49.450Z,81.71
2023-03-27T19:55:25.550Z,81.67
2023-03-27T19:57:55.006Z,81.54
2023-03-27T20:00:22.679Z,82.94
2023-03-27T20:02:49.700Z,82.91
2023-03-27T20:05:16.554Z,83.35
2023-03-27T20:07:43.401Z,83.78
2023-03-27T20:10:13.228Z,83.66
2023-03-27T20:12:39.985Z,84.17
2023-03-27T20:15:12.241Z,84.43
2023-03-27T20:17:39.389Z,84.11
2023-03-27T20:20:11.198Z,84.85
2023-03-27T20:22:50.198Z,84.79
2023-03-27T20:25:24.143Z,84.68
2023-03-27T20:27:52.119Z,84.45
2023-03-27T20:30:18.943Z,84.78
2023-03-27T20:32:45.881Z,84.83
2023-03-27T20:35:22.903Z,84.65
2023-03-27T20:37:56.544Z,84.71
2023-03-27T20:40:24.312Z,84.64
2023-03-27T20:43:03.572Z,85.11
2023-03-27T20:45:31.260Z,85.41
2023-03-27T20:48:03.399Z,85.25
2023-03-27T20:50:35.887Z,85.33
2023-03-27T20:53:04.791Z,85.76
2023-03-27T20:55:34.556Z,85.53
2023-03-27T20:58:06.622Z,85.15
2023-03-27T21:00:33.664Z,84.71
2023-03-27T21:03:00.697Z,84.31
2023-03-27T21:05:28.018Z,84.33
2023-03-27T21:07:54.877Z,83.66
2023-03-27T21:10:21.782Z,82.61
2023-03-27T21:12:51.229Z,82.50
2023-03-27T21:15:18.101Z,82.48
2023-03-27T21:17:44.999Z,82.07
2023-03-27T21:20:11.975Z,82.04
2023-03-27T21:22:38.684Z,82.43
2023-03-27T21:25:05.778Z,81.87
2023-03-27T21:27:32.505Z,82.29
2023-03-27T21:29:59.268Z,81.91
2023-03-27T21:32:26.009Z,82.28
2023-03-27T21:34:52.751Z,82.16
2023-03-27T21:37:19.882Z,81.79
2023-03-27T21:39:46.817Z,83.16
2023-03-27T21:42:13.689Z,84.01
2023-03-27T21:44:40.429Z,84.66
2023-03-27T21:47:07.172Z,85.60
2023-03-27T21:49:33.885Z,85.88
2023-03-27T21:52:00.617Z,86.18
2023-03-27T21:54:27.299Z,86.61
2023-03-27T21:56:54.058Z,86.94
2023-03-27T21:59:20.964Z,86.54
2023-03-27T22:01:47.844Z,86.68
2023-03-27T22:04:14.661Z,86.58
2023-03-27T22:06:41.448Z,86.13
2023-03-27T22:09:08.203Z,86.70
2023-03-27T22:11:34.899Z,86.54
2023-03-27T22:14:01.653Z,86.12
2023-03-27T22:16:28.483Z,85.97
2023-03-27T22:18:56.130Z,85.94
2023-03-27T22:21:26.029Z,85.72
2023-03-27T22:23:54.109Z,86.47
2023-03-27T22:26:23.669Z,86.27
2023-03-27T22:28:52.773Z,86.45
2023-03-27T22:31:21.232Z,86.78
2023-03-27T22:33:48.468Z,86.94
2023-03-27T22:36:15.945Z,86.84
2023-03-27T22:38:43.332Z,87.19
2023-03-27T22:41:12.563Z,87.59
2023-03-27T22:43:39.678Z,87.22
2023-03-27T22:46:15.146Z,87.71
2023-03-27T22:48:42.510Z,87.79
2023-03-27T22:51:11.539Z,86.63
2023-03-27T22:53:38.609Z,86.62
2023-03-27T22:56:06.568Z,85.82
2023-03-27T22:58:34.106Z,84.24
2023-03-27T23:01:01.178Z,83.86
2023-03-27T23:03:28.496Z,83.45
2023-03-27T23:05:55.603Z,82.96
2023-03-27T23:08:27.433Z,82.99
2023-03-27T23:11:05.982Z,83.25
2023-03-27T23:13:34.982Z,83.53
2023-03-27T23:16:02.229Z,83.63
2023-03-27T23:18:29.197Z,84.06
2023-03-27T23:21:07.114Z,82.99
2023-03-27T23:23:35.614Z,82.38
2023-03-27T23:26:06.436Z,82.35
2023-03-27T23:28:36.064Z,83.06
2023-03-27T23:31:05.638Z,82.80
2023-03-27T23:33:38.626Z,82.69
2023-03-27T23:36:08.793Z,82.10
2023-03-27T23:38:37.524Z,82.74
2023-03-27T23:41:06.920Z,81.99
2023-03-27T23:43:34.615Z,81.85
2023-03-27T23:46:02.074Z,81.79
2023-03-27T23:48:29.528Z,82.04
2023-03-27T23:50:57.891Z,80.78
2023-03-27T23:53:26.366Z,81.13
2023-03-27T23:55:54.627Z,80.53
2023-03-27T23:58:21.917Z,80.02
